sensor_id;sensor_type;location;lat;lon;timestamp;P1;P2;P0
71858;PMS5003;59713;50.866;4.324;2022-12-26T00:00:58;10;10;
71858;PMS5003;59713;50.866;4.324;2022-12-26T00:06:57;8;7;
71858;PMS5003;59713;50.866;4.324;2022-12-26T00:12:57;11;10;
71858;PMS5003;59713;50.866;4.324;2022-12-26T00:15:57;8;8;
71858;PMS5003;59713;50.866;4.324;2022-12-26T00:18:57;7;7;
71858;PMS5003;59713;50.866;4.324;2022-12-26T00:21:57;10;9;
71858;PMS5003;59713;50.866;4.324;2022-12-26T00:24:57;9;9;
71858;PMS5003;59713;50.866;4.324;2022-12-26T00:30:57;8;8;
71858;PMS5003;59713;50.866;4.324;2022-12-26T00:33:57;10;9;
71858;PMS5003;59713;50.866;4.324;2022-12-26T00:36:57;12;11;
71858;PMS5003;59713;50.866;4.324;2022-12-26T00:39:57;10;9;
71858;PMS5003;59713;50.866;4.324;2022-12-26T00:42:57;8;8;
71858;PMS5003;59713;50.866;4.324;2022-12-26T00:48:57;6;6;
71858;PMS5003;59713;50.866;4.324;2022-12-26T00:51:57;8;8;
71858;PMS5003;59713;50.866;4.324;2022-12-26T00:54:57;11;9;
71858;PMS5003;59713;50.866;4.324;2022-12-26T00:57:57;8;8;
71858;PMS5003;59713;50.866;4.324;2022-12-26T01:03:57;9;9;
71858;PMS5003;59713;50.866;4.324;2022-12-26T01:06:57;8;8;
71858;PMS5003;59713;50.866;4.324;2022-12-26T01:09:57;9;8;
71858;PMS5003;59713;50.866;4.324;2022-12-26T01:18:57;11;9;
71858;PMS5003;59713;50.866;4.324;2022-12-26T01:21:57;10;10;
71858;PMS5003;59713;50.866;4.324;2022-12-26T01:24:57;12;9;
71858;PMS5003;59713;50.866;4.324;2022-12-26T01:31:00;13;12;
71858;PMS5003;59713;50.866;4.324;2022-12-26T01:33:57;6;4;
71858;PMS5003;59713;50.866;4.324;2022-12-26T01:36:57;17;14;
71858;PMS5003;59713;50.866;4.324;2022-12-26T01:39:57;15;15;
71858;PMS5003;59713;50.866;4.324;2022-12-26T01:42:57;16;16;
71858;PMS5003;59713;50.866;4.324;2022-12-26T01:48:58;17;15;
71858;PMS5003;59713;50.866;4.324;2022-12-26T01:51:58;20;17;
71858;PMS5003;59713;50.866;4.324;2022-12-26T01:54:57;13;13;
71858;PMS5003;59713;50.866;4.324;2022-12-26T01:57:59;14;14;
71858;PMS5003;59713;50.866;4.324;2022-12-26T02:00:57;11;11;
71858;PMS5003;59713;50.866;4.324;2022-12-26T02:03:57;6;6;
71858;PMS5003;59713;50.866;4.324;2022-12-26T02:06:57;12;12;
71858;PMS5003;59713;50.866;4.324;2022-12-26T02:09:57;15;12;
71858;PMS5003;59713;50.866;4.324;2022-12-26T02:12:57;10;9;
71858;PMS5003;59713;50.866;4.324;2022-12-26T02:15:57;14;11;
71858;PMS5003;59713;50.866;4.324;2022-12-26T02:18:57;11;11;
71858;PMS5003;59713;50.866;4.324;2022-12-26T02:22:03;12;9;
71858;PMS5003;59713;50.866;4.324;2022-12-26T02:25:03;11;8;
71858;PMS5003;59713;50.866;4.324;2022-12-26T02:28:03;8;8;
71858;PMS5003;59713;50.866;4.324;2022-12-26T02:30:58;6;6;
71858;PMS5003;59713;50.866;4.324;2022-12-26T02:33:59;8;8;
71858;PMS5003;59713;50.866;4.324;2022-12-26T02:37:02;9;8;
71858;PMS5003;59713;50.866;4.324;2022-12-26T02:40:02;10;7;
71858;PMS5003;59713;50.866;4.324;2022-12-26T02:42:58;7;7;
71858;PMS5003;59713;50.866;4.324;2022-12-26T02:46:00;5;5;
71858;PMS5003;59713;50.866;4.324;2022-12-26T02:54:58;6;5;
71858;PMS5003;59713;50.866;4.324;2022-12-26T02:57:58;4;4;
71858;PMS5003;59713;50.866;4.324;2022-12-26T03:03:57;5;4;
71858;PMS5003;59713;50.866;4.324;2022-12-26T03:09:57;3;3;
71858;PMS5003;59713;50.866;4.324;2022-12-26T03:15:58;5;3;
71858;PMS5003;59713;50.866;4.324;2022-12-26T03:18:58;4;3;
71858;PMS5003;59713;50.866;4.324;2022-12-26T03:21:57;5;2;
71858;PMS5003;59713;50.866;4.324;2022-12-26T03:24:57;4;4;
71858;PMS5003;59713;50.866;4.324;2022-12-26T03:27:57;3;3;
71858;PMS5003;59713;50.866;4.324;2022-12-26T03:34:03;5;4;
71858;PMS5003;59713;50.866;4.324;2022-12-26T03:37:04;6;6;
71858;PMS5003;59713;50.866;4.324;2022-12-26T03:42:58;5;3;
71858;PMS5003;59713;50.866;4.324;2022-12-26T03:46:00;6;6;
71858;PMS5003;59713;50.866;4.324;2022-12-26T03:49:05;5;5;
71858;PMS5003;59713;50.866;4.324;2022-12-26T03:51:58;8;5;
71858;PMS5003;59713;50.866;4.324;2022-12-26T03:55:01;6;6;
71858;PMS5003;59713;50.866;4.324;2022-12-26T03:58:09;5;5;
71858;PMS5003;59713;50.866;4.324;2022-12-26T04:00:57;8;7;
71858;PMS5003;59713;50.866;4.324;2022-12-26T04:03:57;7;5;
71858;PMS5003;59713;50.866;4.324;2022-12-26T04:06:58;4;4;
71858;PMS5003;59713;50.866;4.324;2022-12-26T04:16:00;3;3;
71858;PMS5003;59713;50.866;4.324;2022-12-26T04:19:00;6;4;
71858;PMS5003;59713;50.866;4.324;2022-12-26T04:21:58;4;3;
71858;PMS5003;59713;50.866;4.324;2022-12-26T04:30:59;2;2;
71858;PMS5003;59713;50.866;4.324;2022-12-26T04:33:58;5;4;
71858;PMS5003;59713;50.866;4.324;2022-12-26T04:45:57;4;4;
71858;PMS5003;59713;50.866;4.324;2022-12-26T04:48:57;5;5;
71858;PMS5003;59713;50.866;4.324;2022-12-26T04:51:58;4;4;
71858;PMS5003;59713;50.866;4.324;2022-12-26T04:54:57;6;4;
71858;PMS5003;59713;50.866;4.324;2022-12-26T04:57:58;4;4;
71858;PMS5003;59713;50.866;4.324;2022-12-26T05:00:57;5;4;
71858;PMS5003;59713;50.866;4.324;2022-12-26T05:03:58;4;3;
71858;PMS5003;59713;50.866;4.324;2022-12-26T05:09:58;5;3;
71858;PMS5003;59713;50.866;4.324;2022-12-26T05:12:57;3;3;
71858;PMS5003;59713;50.866;4.324;2022-12-26T05:18:57;2;2;
71858;PMS5003;59713;50.866;4.324;2022-12-26T05:24:57;5;3;
71858;PMS5003;59713;50.866;4.324;2022-12-26T05:27:57;3;3;
71858;PMS5003;59713;50.866;4.324;2022-12-26T05:30:58;0;0;
71858;PMS5003;59713;50.866;4.324;2022-12-26T05:33:57;3;3;
71858;PMS5003;59713;50.866;4.324;2022-12-26T05:36:58;2;2;
71858;PMS5003;59713;50.866;4.324;2022-12-26T05:39:57;3;2;
71858;PMS5003;59713;50.866;4.324;2022-12-26T05:42:57;6;4;
71858;PMS5003;59713;50.866;4.324;2022-12-26T05:45:57;4;3;
71858;PMS5003;59713;50.866;4.324;2022-12-26T05:48:58;1;1;
71858;PMS5003;59713;50.866;4.324;2022-12-26T05:51:57;2;2;
71858;PMS5003;59713;50.866;4.324;2022-12-26T05:54:57;3;3;
71858;PMS5003;59713;50.866;4.324;2022-12-26T05:57:58;2;2;
71858;PMS5003;59713;50.866;4.324;2022-12-26T06:01:06;3;3;
71858;PMS5003;59713;50.866;4.324;2022-12-26T06:03:58;2;2;
71858;PMS5003;59713;50.866;4.324;2022-12-26T06:12:58;4;3;
71858;PMS5003;59713;50.866;4.324;2022-12-26T06:15:57;2;2;
71858;PMS5003;59713;50.866;4.324;2022-12-26T06:18:57;1;1;
71858;PMS5003;59713;50.866;4.324;2022-12-26T06:24:58;3;3;
71858;PMS5003;59713;50.866;4.324;2022-12-26T06:27:58;1;1;
71858;PMS5003;59713;50.866;4.324;2022-12-26T06:31:00;2;2;
71858;PMS5003;59713;50.866;4.324;2022-12-26T06:33:57;1;1;
71858;PMS5003;59713;50.866;4.324;2022-12-26T06:36:58;2;2;
71858;PMS5003;59713;50.866;4.324;2022-12-26T06:39:58;1;1;
71858;PMS5003;59713;50.866;4.324;2022-12-26T06:48:58;2;2;
71858;PMS5003;59713;50.866;4.324;2022-12-26T06:54:58;1;1;
71858;PMS5003;59713;50.866;4.324;2022-12-26T06:57:58;2;2;
71858;PMS5003;59713;50.866;4.324;2022-12-26T07:03:58;1;1;
71858;PMS5003;59713;50.866;4.324;2022-12-26T07:09:58;4;1;
71858;PMS5003;59713;50.866;4.324;2022-12-26T07:12:58;2;2;
71858;PMS5003;59713;50.866;4.324;2022-12-26T07:15:58;1;1;
71858;PMS5003;59713;50.866;4.324;2022-12-26T07:27:58;2;2;
71858;PMS5003;59713;50.866;4.324;2022-12-26T07:30:58;0;0;
71858;PMS5003;59713;50.866;4.324;2022-12-26T07:33:58;1;1;
71858;PMS5003;59713;50.866;4.324;2022-12-26T07:36:58;3;1;
71858;PMS5003;59713;50.866;4.324;2022-12-26T07:39:58;1;1;
71858;PMS5003;59713;50.866;4.324;2022-12-26T07:51:58;2;1;
71858;PMS5003;59713;50.866;4.324;2022-12-26T07:54:58;1;1;
71858;PMS5003;59713;50.866;4.324;2022-12-26T08:03:58;0;0;
71858;PMS5003;59713;50.866;4.324;2022-12-26T08:06:58;1;1;
71858;PMS5003;59713;50.866;4.324;2022-12-26T08:09:58;2;2;
71858;PMS5003;59713;50.866;4.324;2022-12-26T08:12:58;3;1;
71858;PMS5003;59713;50.866;4.324;2022-12-26T08:15:58;1;1;
71858;PMS5003;59713;50.866;4.324;2022-12-26T08:21:58;8;4;
71858;PMS5003;59713;50.866;4.324;2022-12-26T08:24:58;5;2;
71858;PMS5003;59713;50.866;4.324;2022-12-26T08:27:58;3;2;
71858;PMS5003;59713;50.866;4.324;2022-12-26T08:30:58;2;2;
71858;PMS5003;59713;50.866;4.324;2022-12-26T08:33:58;3;2;
71858;PMS5003;59713;50.866;4.324;2022-12-26T08:36:58;2;2;
71858;PMS5003;59713;50.866;4.324;2022-12-26T08:42:58;5;1;
71858;PMS5003;59713;50.866;4.324;2022-12-26T08:45:58;2;2;
71858;PMS5003;59713;50.866;4.324;2022-12-26T08:48:58;3;3;
71858;PMS5003;59713;50.866;4.324;2022-12-26T08:51:58;2;2;
71858;PMS5003;59713;50.866;4.324;2022-12-26T08:54:58;1;1;
71858;PMS5003;59713;50.866;4.324;2022-12-26T08:57:58;2;2;
71858;PMS5003;59713;50.866;4.324;2022-12-26T09:01:04;1;1;
71858;PMS5003;59713;50.866;4.324;2022-12-26T09:06:58;3;3;
71858;PMS5003;59713;50.866;4.324;2022-12-26T09:09:58;1;1;
71858;PMS5003;59713;50.866;4.324;2022-12-26T09:12:58;5;3;
71858;PMS5003;59713;50.866;4.324;2022-12-26T09:16:06;1;1;
71858;PMS5003;59713;50.866;4.324;2022-12-26T09:21:58;3;2;
71858;PMS5003;59713;50.866;4.324;2022-12-26T09:24:58;1;1;
71858;PMS5003;59713;50.866;4.324;2022-12-26T09:27:58;2;2;
71858;PMS5003;59713;50.866;4.324;2022-12-26T09:30:58;3;2;
71858;PMS5003;59713;50.866;4.324;2022-12-26T09:33:59;2;2;
71858;PMS5003;59713;50.866;4.324;2022-12-26T09:36:58;3;3;
71858;PMS5003;59713;50.866;4.324;2022-12-26T09:43:00;2;2;
71858;PMS5003;59713;50.866;4.324;2022-12-26T09:45:59;4;3;
71858;PMS5003;59713;50.866;4.324;2022-12-26T09:49:01;5;2;
71858;PMS5003;59713;50.866;4.324;2022-12-26T09:51:59;3;1;
71858;PMS5003;59713;50.866;4.324;2022-12-26T09:57:59;1;1;
71858;PMS5003;59713;50.866;4.324;2022-12-26T10:00:59;2;2;
71858;PMS5003;59713;50.866;4.324;2022-12-26T10:07:00;1;1;
71858;PMS5003;59713;50.866;4.324;2022-12-26T10:10:04;2;2;
71858;PMS5003;59713;50.866;4.324;2022-12-26T10:12:59;1;1;
71858;PMS5003;59713;50.866;4.324;2022-12-26T10:16:07;4;4;
71858;PMS5003;59713;50.866;4.324;2022-12-26T10:19:00;3;1;
71858;PMS5003;59713;50.866;4.324;2022-12-26T10:27:59;2;1;
71858;PMS5003;59713;50.866;4.324;2022-12-26T10:30:59;4;2;
71858;PMS5003;59713;50.866;4.324;2022-12-26T10:34:01;2;2;
71858;PMS5003;59713;50.866;4.324;2022-12-26T10:36:58;1;1;
71858;PMS5003;59713;50.866;4.324;2022-12-26T10:39:59;2;2;
71858;PMS5003;59713;50.866;4.324;2022-12-26T10:42:59;1;1;
71858;PMS5003;59713;50.866;4.324;2022-12-26T10:48:58;3;1;
71858;PMS5003;59713;50.866;4.324;2022-12-26T10:51:59;2;2;
71858;PMS5003;59713;50.866;4.324;2022-12-26T10:54:58;4;2;
71858;PMS5003;59713;50.866;4.324;2022-12-26T10:57:59;2;2;
71858;PMS5003;59713;50.866;4.324;2022-12-26T11:00:58;1;1;
71858;PMS5003;59713;50.866;4.324;2022-12-26T11:03:59;2;2;
71858;PMS5003;59713;50.866;4.324;2022-12-26T11:06:58;3;2;
71858;PMS5003;59713;50.866;4.324;2022-12-26T11:15:58;2;2;
71858;PMS5003;59713;50.866;4.324;2022-12-26T11:25:09;1;1;
71858;PMS5003;59713;50.866;4.324;2022-12-26T11:33:59;7;1;
71858;PMS5003;59713;50.866;4.324;2022-12-26T11:36:58;2;1;
71858;PMS5003;59713;50.866;4.324;2022-12-26T11:39:58;3;3;
71858;PMS5003;59713;50.866;4.324;2022-12-26T11:43:04;1;1;
71858;PMS5003;59713;50.866;4.324;2022-12-26T11:48:58;3;1;
71858;PMS5003;59713;50.866;4.324;2022-12-26T11:51:59;1;1;
71858;PMS5003;59713;50.866;4.324;2022-12-26T11:54:58;0;0;
71858;PMS5003;59713;50.866;4.324;2022-12-26T11:57:59;3;0;
71858;PMS5003;59713;50.866;4.324;2022-12-26T12:01:03;1;1;
71858;PMS5003;59713;50.866;4.324;2022-12-26T12:03:58;3;1;
71858;PMS5003;59713;50.866;4.324;2022-12-26T12:06:59;2;2;
71858;PMS5003;59713;50.866;4.324;2022-12-26T12:10:00;1;1;
71858;PMS5003;59713;50.866;4.324;2022-12-26T12:13:00;4;2;
71858;PMS5003;59713;50.866;4.324;2022-12-26T12:16:01;7;3;
71858;PMS5003;59713;50.866;4.324;2022-12-26T12:19:00;2;2;
71858;PMS5003;59713;50.866;4.324;2022-12-26T12:22:02;4;1;
71858;PMS5003;59713;50.866;4.324;2022-12-26T12:25:03;5;4;
71858;PMS5003;59713;50.866;4.324;2022-12-26T12:27:59;2;2;
71858;PMS5003;59713;50.866;4.324;2022-12-26T12:34:00;3;2;
71858;PMS5003;59713;50.866;4.324;2022-12-26T12:37:01;4;3;
71858;PMS5003;59713;50.866;4.324;2022-12-26T12:39:59;7;3;
71858;PMS5003;59713;50.866;4.324;2022-12-26T12:43:01;4;3;
71858;PMS5003;59713;50.866;4.324;2022-12-26T12:46:02;6;2;
71858;PMS5003;59713;50.866;4.324;2022-12-26T12:49:04;2;2;
71858;PMS5003;59713;50.866;4.324;2022-12-26T12:55:05;4;2;
71858;PMS5003;59713;50.866;4.324;2022-12-26T12:57:59;3;1;
71858;PMS5003;59713;50.866;4.324;2022-12-26T13:01:00;2;1;
71858;PMS5003;59713;50.866;4.324;2022-12-26T13:06:58;4;2;
71858;PMS5003;59713;50.866;4.324;2022-12-26T13:12:59;3;1;
71858;PMS5003;59713;50.866;4.324;2022-12-26T13:15:59;7;4;
71858;PMS5003;59713;50.866;4.324;2022-12-26T13:18:59;2;1;
71858;PMS5003;59713;50.866;4.324;2022-12-26T13:22:00;6;3;
71858;PMS5003;59713;50.866;4.324;2022-12-26T13:24:58;2;1;
71858;PMS5003;59713;50.866;4.324;2022-12-26T13:30:58;6;2;
71858;PMS5003;59713;50.866;4.324;2022-12-26T13:34:21;5;2;
71858;PMS5003;59713;50.866;4.324;2022-12-26T13:39:58;3;2;
71858;PMS5003;59713;50.866;4.324;2022-12-26T13:43:00;5;2;
71858;PMS5003;59713;50.866;4.324;2022-12-26T13:48:58;2;1;
71858;PMS5003;59713;50.866;4.324;2022-12-26T13:51:59;3;3;
71858;PMS5003;59713;50.866;4.324;2022-12-26T13:58:10;4;2;
71858;PMS5003;59713;50.866;4.324;2022-12-26T14:01:00;5;2;
71858;PMS5003;59713;50.866;4.324;2022-12-26T14:04:03;6;2;
71858;PMS5003;59713;50.866;4.324;2022-12-26T14:07:02;4;2;
71858;PMS5003;59713;50.866;4.324;2022-12-26T14:10:01;6;1;
71858;PMS5003;59713;50.866;4.324;2022-12-26T14:13:01;9;3;
71858;PMS5003;59713;50.866;4.324;2022-12-26T14:15:59;5;2;
71858;PMS5003;59713;50.866;4.324;2022-12-26T14:21:59;4;2;
71858;PMS5003;59713;50.866;4.324;2022-12-26T14:25:01;2;2;
71858;PMS5003;59713;50.866;4.324;2022-12-26T14:28:09;3;2;
71858;PMS5003;59713;50.866;4.324;2022-12-26T14:31:03;2;1;
71858;PMS5003;59713;50.866;4.324;2022-12-26T14:34:00;3;3;
71858;PMS5003;59713;50.866;4.324;2022-12-26T14:40:02;7;4;
71858;PMS5003;59713;50.866;4.324;2022-12-26T14:43:00;3;1;
71858;PMS5003;59713;50.866;4.324;2022-12-26T14:52:08;2;2;
71858;PMS5003;59713;50.866;4.324;2022-12-26T14:54:58;5;3;
71858;PMS5003;59713;50.866;4.324;2022-12-26T14:58:11;1;1;
71858;PMS5003;59713;50.866;4.324;2022-12-26T15:03:59;5;4;
71858;PMS5003;59713;50.866;4.324;2022-12-26T15:07:05;1;1;
71858;PMS5003;59713;50.866;4.324;2022-12-26T15:13:04;6;3;
71858;PMS5003;59713;50.866;4.324;2022-12-26T15:16:02;4;2;
71858;PMS5003;59713;50.866;4.324;2022-12-26T15:19:05;2;0;
71858;PMS5003;59713;50.866;4.324;2022-12-26T15:25:05;1;1;
71858;PMS5003;59713;50.866;4.324;2022-12-26T15:31:07;2;2;
71858;PMS5003;59713;50.866;4.324;2022-12-26T15:34:01;3;3;
71858;PMS5003;59713;50.866;4.324;2022-12-26T15:37:00;2;2;
71858;PMS5003;59713;50.866;4.324;2022-12-26T15:40:00;6;6;
71858;PMS5003;59713;50.866;4.324;2022-12-26T15:43:05;5;3;
71858;PMS5003;59713;50.866;4.324;2022-12-26T15:46:00;3;2;
71858;PMS5003;59713;50.866;4.324;2022-12-26T15:49:17;2;2;
71858;PMS5003;59713;50.866;4.324;2022-12-26T15:52:00;3;2;
71858;PMS5003;59713;50.866;4.324;2022-12-26T15:55:02;2;2;
71858;PMS5003;59713;50.866;4.324;2022-12-26T16:00:59;3;3;
71858;PMS5003;59713;50.866;4.324;2022-12-26T16:03:59;6;3;
71858;PMS5003;59713;50.866;4.324;2022-12-26T16:07:03;3;2;
71858;PMS5003;59713;50.866;4.324;2022-12-26T16:09:58;4;3;
71858;PMS5003;59713;50.866;4.324;2022-12-26T16:13:02;5;4;
71858;PMS5003;59713;50.866;4.324;2022-12-26T16:15:59;7;1;
71858;PMS5003;59713;50.866;4.324;2022-12-26T16:19:13;2;2;
71858;PMS5003;59713;50.866;4.324;2022-12-26T16:22:00;4;4;
71858;PMS5003;59713;50.866;4.324;2022-12-26T16:24:58;3;3;
71858;PMS5003;59713;50.866;4.324;2022-12-26T16:27:59;4;4;
71858;PMS5003;59713;50.866;4.324;2022-12-26T16:30:58;7;6;
71858;PMS5003;59713;50.866;4.324;2022-12-26T16:33:59;5;3;
71858;PMS5003;59713;50.866;4.324;2022-12-26T16:36:58;1;1;
71858;PMS5003;59713;50.866;4.324;2022-12-26T16:40:13;7;5;
71858;PMS5003;59713;50.866;4.324;2022-12-26T16:43:00;4;4;
71858;PMS5003;59713;50.866;4.324;2022-12-26T16:45:59;3;3;
71858;PMS5003;59713;50.866;4.324;2022-12-26T16:51:59;5;4;
71858;PMS5003;59713;50.866;4.324;2022-12-26T16:55:21;9;6;
71858;PMS5003;59713;50.866;4.324;2022-12-26T16:58:00;5;5;
71858;PMS5003;59713;50.866;4.324;2022-12-26T17:01:01;8;6;
71858;PMS5003;59713;50.866;4.324;2022-12-26T17:04:01;5;3;
71858;PMS5003;59713;50.866;4.324;2022-12-26T17:07:00;7;3;
71858;PMS5003;59713;50.866;4.324;2022-12-26T17:09:59;6;6;
71858;PMS5003;59713;50.866;4.324;2022-12-26T17:12:59;5;3;
71858;PMS5003;59713;50.866;4.324;2022-12-26T17:15:59;10;5;
71858;PMS5003;59713;50.866;4.324;2022-12-26T17:19:13;4;4;
71858;PMS5003;59713;50.866;4.324;2022-12-26T17:22:18;6;4;
71858;PMS5003;59713;50.866;4.324;2022-12-26T17:30:59;10;8;
71858;PMS5003;59713;50.866;4.324;2022-12-26T17:33:59;6;6;
71858;PMS5003;59713;50.866;4.324;2022-12-26T17:37:01;10;7;
71858;PMS5003;59713;50.866;4.324;2022-12-26T17:40:02;6;5;
71858;PMS5003;59713;50.866;4.324;2022-12-26T17:43:03;8;6;
71858;PMS5003;59713;50.866;4.324;2022-12-26T17:48:59;12;5;
71858;PMS5003;59713;50.866;4.324;2022-12-26T17:51:59;7;7;
71858;PMS5003;59713;50.866;4.324;2022-12-26T17:54:59;8;5;
71858;PMS5003;59713;50.866;4.324;2022-12-26T18:00:59;7;5;
71858;PMS5003;59713;50.866;4.324;2022-12-26T18:03:59;4;4;
71858;PMS5003;59713;50.866;4.324;2022-12-26T18:06:59;7;5;
71858;PMS5003;59713;50.866;4.324;2022-12-26T18:09:59;6;5;
71858;PMS5003;59713;50.866;4.324;2022-12-26T18:12:59;7;6;
71858;PMS5003;59713;50.866;4.324;2022-12-26T18:18:59;9;9;
71858;PMS5003;59713;50.866;4.324;2022-12-26T18:21:59;11;8;
71858;PMS5003;59713;50.866;4.324;2022-12-26T18:24:59;12;7;
71858;PMS5003;59713;50.866;4.324;2022-12-26T18:27:59;5;5;
71858;PMS5003;59713;50.866;4.324;2022-12-26T18:30:59;7;7;
71858;PMS5003;59713;50.866;4.324;2022-12-26T18:33:59;6;6;
71858;PMS5003;59713;50.866;4.324;2022-12-26T18:36:59;15;8;
71858;PMS5003;59713;50.866;4.324;2022-12-26T18:40:12;5;5;
71858;PMS5003;59713;50.866;4.324;2022-12-26T18:42:59;14;8;
71858;PMS5003;59713;50.866;4.324;2022-12-26T18:45:59;7;7;
71858;PMS5003;59713;50.866;4.324;2022-12-26T18:48:59;13;8;
71858;PMS5003;59713;50.866;4.324;2022-12-26T18:51:59;16;7;
71858;PMS5003;59713;50.866;4.324;2022-12-26T18:54:59;12;6;
71858;PMS5003;59713;50.866;4.324;2022-12-26T18:58:01;4;3;
71858;PMS5003;59713;50.866;4.324;2022-12-26T19:00:59;10;7;
71858;PMS5003;59713;50.866;4.324;2022-12-26T19:06:59;6;6;
71858;PMS5003;59713;50.866;4.324;2022-12-26T19:09:59;12;7;
71858;PMS5003;59713;50.866;4.324;2022-12-26T19:13:05;11;6;
71858;PMS5003;59713;50.866;4.324;2022-12-26T19:15:59;12;9;
71858;PMS5003;59713;50.866;4.324;2022-12-26T19:18:59;6;6;
71858;PMS5003;59713;50.866;4.324;2022-12-26T19:21:59;10;9;
71858;PMS5003;59713;50.866;4.324;2022-12-26T19:27:59;8;7;
71858;PMS5003;59713;50.866;4.324;2022-12-26T19:31:04;12;10;
71858;PMS5003;59713;50.866;4.324;2022-12-26T19:33:59;9;7;
71858;PMS5003;59713;50.866;4.324;2022-12-26T19:36:59;10;9;
71858;PMS5003;59713;50.866;4.324;2022-12-26T19:39:59;9;7;
71858;PMS5003;59713;50.866;4.324;2022-12-26T19:42:59;12;9;
71858;PMS5003;59713;50.866;4.324;2022-12-26T19:45:59;9;9;
71858;PMS5003;59713;50.866;4.324;2022-12-26T19:48:59;15;11;
71858;PMS5003;59713;50.866;4.324;2022-12-26T19:51:59;10;10;
71858;PMS5003;59713;50.866;4.324;2022-12-26T19:57:59;9;8;
71858;PMS5003;59713;50.866;4.324;2022-12-26T20:03:59;11;8;
71858;PMS5003;59713;50.866;4.324;2022-12-26T20:06:59;7;7;
71858;PMS5003;59713;50.866;4.324;2022-12-26T20:09:59;8;8;
71858;PMS5003;59713;50.866;4.324;2022-12-26T20:12:59;10;8;
71858;PMS5003;59713;50.866;4.324;2022-12-26T20:15:59;14;9;
71858;PMS5003;59713;50.866;4.324;2022-12-26T20:19:59;11;7;
71858;PMS5003;59713;50.866;4.324;2022-12-26T20:21:59;9;9;
71858;PMS5003;59713;50.866;4.324;2022-12-26T20:24:59;8;8;
71858;PMS5003;59713;50.866;4.324;2022-12-26T20:27:59;10;9;
71858;PMS5003;59713;50.866;4.324;2022-12-26T20:31:00;14;10;
71858;PMS5003;59713;50.866;4.324;2022-12-26T20:33:59;11;8;
71858;PMS5003;59713;50.866;4.324;2022-12-26T20:36:59;9;7;
71858;PMS5003;59713;50.866;4.324;2022-12-26T20:42:59;10;8;
71858;PMS5003;59713;50.866;4.324;2022-12-26T20:46:03;11;9;
71858;PMS5003;59713;50.866;4.324;2022-12-26T20:48:59;9;7;
71858;PMS5003;59713;50.866;4.324;2022-12-26T20:51:59;10;8;
71858;PMS5003;59713;50.866;4.324;2022-12-26T20:54:59;6;6;
71858;PMS5003;59713;50.866;4.324;2022-12-26T20:57:59;7;7;
71858;PMS5003;59713;50.866;4.324;2022-12-26T21:00:59;13;8;
71858;PMS5003;59713;50.866;4.324;2022-12-26T21:03:59;9;8;
71858;PMS5003;59713;50.866;4.324;2022-12-26T21:06:59;7;7;
71858;PMS5003;59713;50.866;4.324;2022-12-26T21:10:06;11;6;
71858;PMS5003;59713;50.866;4.324;2022-12-26T21:12:59;8;7;
71858;PMS5003;59713;50.866;4.324;2022-12-26T21:16:04;7;6;
71858;PMS5003;59713;50.866;4.324;2022-12-26T21:18:59;8;8;
71858;PMS5003;59713;50.866;4.324;2022-12-26T21:21:59;5;4;
71858;PMS5003;59713;50.866;4.324;2022-12-26T21:25:01;8;6;
71858;PMS5003;59713;50.866;4.324;2022-12-26T21:28:01;6;6;
71858;PMS5003;59713;50.866;4.324;2022-12-26T21:30:59;12;9;
71858;PMS5003;59713;50.866;4.324;2022-12-26T21:33:59;7;7;
71858;PMS5003;59713;50.866;4.324;2022-12-26T21:38:00;17;8;
71858;PMS5003;59713;50.866;4.324;2022-12-26T21:39:59;15;9;
71858;PMS5003;59713;50.866;4.324;2022-12-26T21:42:59;10;8;
71858;PMS5003;59713;50.866;4.324;2022-12-26T21:45:59;14;10;
71858;PMS5003;59713;50.866;4.324;2022-12-26T21:49:23;5;2;
71858;PMS5003;59713;50.866;4.324;2022-12-26T21:51:59;7;7;
71858;PMS5003;59713;50.866;4.324;2022-12-26T21:55:03;10;6;
71858;PMS5003;59713;50.866;4.324;2022-12-26T21:57:59;7;6;
71858;PMS5003;59713;50.866;4.324;2022-12-26T22:00:59;6;5;
71858;PMS5003;59713;50.866;4.324;2022-12-26T22:04:07;9;9;
71858;PMS5003;59713;50.866;4.324;2022-12-26T22:06:59;20;9;
71858;PMS5003;59713;50.866;4.324;2022-12-26T22:09:59;9;9;
71858;PMS5003;59713;50.866;4.324;2022-12-26T22:18:59;10;8;
71858;PMS5003;59713;50.866;4.324;2022-12-26T22:21:59;8;5;
71858;PMS5003;59713;50.866;4.324;2022-12-26T22:30:59;10;7;
71858;PMS5003;59713;50.866;4.324;2022-12-26T22:34:00;8;8;
71858;PMS5003;59713;50.866;4.324;2022-12-26T22:37:17;9;7;
71858;PMS5003;59713;50.866;4.324;2022-12-26T22:39:59;6;6;
71858;PMS5003;59713;50.866;4.324;2022-12-26T22:42:59;8;4;
71858;PMS5003;59713;50.866;4.324;2022-12-26T22:48:59;9;7;
71858;PMS5003;59713;50.866;4.324;2022-12-26T22:52:00;6;6;
71858;PMS5003;59713;50.866;4.324;2022-12-26T22:54:59;7;7;
71858;PMS5003;59713;50.866;4.324;2022-12-26T22:58:01;11;8;
71858;PMS5003;59713;50.866;4.324;2022-12-26T23:01:22;5;5;
71858;PMS5003;59713;50.866;4.324;2022-12-26T23:10:59;6;5;
71858;PMS5003;59713;50.866;4.324;2022-12-26T23:12:59;7;5;
71858;PMS5003;59713;50.866;4.324;2022-12-26T23:16:00;5;4;
71858;PMS5003;59713;50.866;4.324;2022-12-26T23:19:00;9;7;
71858;PMS5003;59713;50.866;4.324;2022-12-26T23:22:00;7;5;
71858;PMS5003;59713;50.866;4.324;2022-12-26T23:24:59;8;6;
71858;PMS5003;59713;50.866;4.324;2022-12-26T23:27:59;6;5;
71858;PMS5003;59713;50.866;4.324;2022-12-26T23:31:14;7;4;
71858;PMS5003;59713;50.866;4.324;2022-12-26T23:33:59;6;6;
71858;PMS5003;59713;50.866;4.324;2022-12-26T23:37:09;8;6;
71858;PMS5003;59713;50.866;4.324;2022-12-26T23:39:59;3;3;
71858;PMS5003;59713;50.866;4.324;2022-12-26T23:42:59;5;4;
71858;PMS5003;59713;50.866;4.324;2022-12-26T23:45:59;8;6;
71858;PMS5003;59713;50.866;4.324;2022-12-26T23:49:24;6;5;
71858;PMS5003;59713;50.866;4.324;2022-12-26T23:52:59;5;5;
71858;PMS5003;59713;50.866;4.324;2022-12-26T23:55:04;6;5;
71858;PMS5003;59713;50.866;4.324;2022-12-26T23:57:59;7;5;
